sensor_id;sensor_type;location;lat;lon;timestamp;P1;durP1;ratioP1;P2;durP2;ratioP2
43664;SDS011;29263;48.172;11.484;2023-06-22T00:01:57;7.32;;;2.20;;
43664;SDS011;29263;48.172;11.484;2023-06-22T00:04:24;6.68;;;2.67;;
43664;SDS011;29263;48.172;11.484;2023-06-22T00:06:50;6.70;;;2.40;;
43664;SDS011;29263;48.172;11.484;2023-06-22T00:09:16;6.75;;;2.15;;
43664;SDS011;29263;48.172;11.484;2023-06-22T00:11:41;4.13;;;2.20;;
43664;SDS011;29263;48.172;11.484;2023-06-22T00:14:07;6.15;;;2.85;;
43664;SDS011;29263;48.172;11.484;2023-06-22T00:16:33;5.40;;;2.42;;
43664;SDS011;29263;48.172;11.484;2023-06-22T00:18:59;5.25;;;2.30;;
43664;SDS011;29263;48.172;11.484;2023-06-22T00:21:28;6.95;;;2.33;;
43664;SDS011;29263;48.172;11.484;2023-06-22T00:23:54;4.70;;;2.25;;
43664;SDS011;29263;48.172;11.484;2023-06-22T00:26:20;6.07;;;1.98;;
43664;SDS011;29263;48.172;11.484;2023-06-22T00:28:47;6.55;;;1.98;;
43664;SDS011;29263;48.172;11.484;2023-06-22T00:31:13;6.22;;;2.53;;
43664;SDS011;29263;48.172;11.484;2023-06-22T00:33:38;4.38;;;2.20;;
43664;SDS011;29263;48.172;11.484;2023-06-22T00:36:04;5.53;;;2.08;;
43664;SDS011;29263;48.172;11.484;2023-06-22T00:38:31;6.50;;;2.40;;
43664;SDS011;29263;48.172;11.484;2023-06-22T00:40:56;5.82;;;2.60;;
43664;SDS011;29263;48.172;11.484;2023-06-22T00:43:22;4.63;;;2.20;;
43664;SDS011;29263;48.172;11.484;2023-06-22T00:45:48;5.30;;;2.60;;
43664;SDS011;29263;48.172;11.484;2023-06-22T00:48:13;6.50;;;2.40;;
43664;SDS011;29263;48.172;11.484;2023-06-22T00:50:40;4.07;;;2.35;;
43664;SDS011;29263;48.172;11.484;2023-06-22T00:53:06;5.93;;;2.30;;
43664;SDS011;29263;48.172;11.484;2023-06-22T00:55:37;6.97;;;2.80;;
43664;SDS011;29263;48.172;11.484;2023-06-22T00:58:06;7.22;;;3.15;;
43664;SDS011;29263;48.172;11.484;2023-06-22T01:00:35;5.15;;;2.55;;
43664;SDS011;29263;48.172;11.484;2023-06-22T01:03:02;4.68;;;2.20;;
43664;SDS011;29263;48.172;11.484;2023-06-22T01:05:29;4.82;;;2.05;;
43664;SDS011;29263;48.172;11.484;2023-06-22T01:08:12;6.10;;;2.75;;
43664;SDS011;29263;48.172;11.484;2023-06-22T01:15:55;3.90;;;2.60;;
43664;SDS011;29263;48.172;11.484;2023-06-22T01:18:31;5.13;;;2.47;;
43664;SDS011;29263;48.172;11.484;2023-06-22T01:21:01;10.95;;;3.25;;
43664;SDS011;29263;48.172;11.484;2023-06-22T01:23:36;4.97;;;2.58;;
43664;SDS011;29263;48.172;11.484;2023-06-22T01:26:20;8.48;;;2.55;;
43664;SDS011;29263;48.172;11.484;2023-06-22T01:28:55;5.63;;;2.47;;
43664;SDS011;29263;48.172;11.484;2023-06-22T01:31:24;3.97;;;2.30;;
43664;SDS011;29263;48.172;11.484;2023-06-22T01:34:04;6.50;;;2.30;;
43664;SDS011;29263;48.172;11.484;2023-06-22T01:36:31;5.20;;;2.20;;
43664;SDS011;29263;48.172;11.484;2023-06-22T01:38:58;6.18;;;2.45;;
43664;SDS011;29263;48.172;11.484;2023-06-22T01:41:25;4.97;;;2.17;;
43664;SDS011;29263;48.172;11.484;2023-06-22T01:43:54;6.70;;;2.53;;
43664;SDS011;29263;48.172;11.484;2023-06-22T01:46:21;3.40;;;2.20;;
43664;SDS011;29263;48.172;11.484;2023-06-22T01:48:48;5.75;;;2.40;;
43664;SDS011;29263;48.172;11.484;2023-06-22T01:51:15;4.22;;;2.50;;
43664;SDS011;29263;48.172;11.484;2023-06-22T01:53:41;5.15;;;2.83;;
43664;SDS011;29263;48.172;11.484;2023-06-22T01:56:07;4.50;;;2.70;;
43664;SDS011;29263;48.172;11.484;2023-06-22T01:58:33;4.68;;;2.85;;
43664;SDS011;29263;48.172;11.484;2023-06-22T02:01:06;8.13;;;2.80;;
43664;SDS011;29263;48.172;11.484;2023-06-22T02:03:37;6.80;;;2.90;;
43664;SDS011;29263;48.172;11.484;2023-06-22T02:06:08;5.78;;;2.45;;
43664;SDS011;29263;48.172;11.484;2023-06-22T02:08:54;5.40;;;2.38;;
43664;SDS011;29263;48.172;11.484;2023-06-22T02:11:24;4.22;;;2.50;;
43664;SDS011;29263;48.172;11.484;2023-06-22T02:13:52;3.90;;;2.38;;
43664;SDS011;29263;48.172;11.484;2023-06-22T02:16:18;5.93;;;2.38;;
43664;SDS011;29263;48.172;11.484;2023-06-22T02:18:48;5.57;;;3.00;;
43664;SDS011;29263;48.172;11.484;2023-06-22T02:21:17;7.57;;;2.38;;
43664;SDS011;29263;48.172;11.484;2023-06-22T02:23:43;6.50;;;2.92;;
43664;SDS011;29263;48.172;11.484;2023-06-22T02:26:09;6.38;;;2.72;;
43664;SDS011;29263;48.172;11.484;2023-06-22T02:28:35;6.03;;;2.42;;
43664;SDS011;29263;48.172;11.484;2023-06-22T02:31:00;5.57;;;3.08;;
43664;SDS011;29263;48.172;11.484;2023-06-22T02:33:26;4.13;;;2.47;;
43664;SDS011;29263;48.172;11.484;2023-06-22T02:35:52;4.47;;;2.30;;
43664;SDS011;29263;48.172;11.484;2023-06-22T02:38:18;9.13;;;3.17;;
43664;SDS011;29263;48.172;11.484;2023-06-22T02:40:44;9.90;;;2.95;;
43664;SDS011;29263;48.172;11.484;2023-06-22T02:43:10;6.68;;;2.33;;
43664;SDS011;29263;48.172;11.484;2023-06-22T02:45:36;4.55;;;2.78;;
43664;SDS011;29263;48.172;11.484;2023-06-22T02:48:02;5.75;;;2.35;;
43664;SDS011;29263;48.172;11.484;2023-06-22T02:50:27;3.58;;;2.70;;
43664;SDS011;29263;48.172;11.484;2023-06-22T02:52:53;6.53;;;2.97;;
43664;SDS011;29263;48.172;11.484;2023-06-22T02:55:19;5.63;;;2.47;;
43664;SDS011;29263;48.172;11.484;2023-06-22T02:57:45;7.18;;;2.38;;
43664;SDS011;29263;48.172;11.484;2023-06-22T03:00:12;5.93;;;2.50;;
43664;SDS011;29263;48.172;11.484;2023-06-22T03:02:48;6.80;;;2.50;;
43664;SDS011;29263;48.172;11.484;2023-06-22T03:05:14;4.78;;;2.97;;
43664;SDS011;29263;48.172;11.484;2023-06-22T03:07:45;7.65;;;2.72;;
43664;SDS011;29263;48.172;11.484;2023-06-22T03:10:12;8.00;;;2.60;;
43664;SDS011;29263;48.172;11.484;2023-06-22T03:12:38;9.77;;;2.75;;
43664;SDS011;29263;48.172;11.484;2023-06-22T03:15:08;5.72;;;2.65;;
43664;SDS011;29263;48.172;11.484;2023-06-22T03:17:35;6.40;;;2.95;;
43664;SDS011;29263;48.172;11.484;2023-06-22T03:20:03;5.60;;;3.03;;
43664;SDS011;29263;48.172;11.484;2023-06-22T03:22:37;5.68;;;3.30;;
43664;SDS011;29263;48.172;11.484;2023-06-22T03:25:03;8.27;;;2.97;;
43664;SDS011;29263;48.172;11.484;2023-06-22T03:27:29;6.20;;;2.78;;
43664;SDS011;29263;48.172;11.484;2023-06-22T03:29:56;5.72;;;2.90;;
43664;SDS011;29263;48.172;11.484;2023-06-22T03:32:22;5.47;;;3.22;;
43664;SDS011;29263;48.172;11.484;2023-06-22T03:34:48;8.07;;;2.97;;
43664;SDS011;29263;48.172;11.484;2023-06-22T03:37:14;7.80;;;2.85;;
43664;SDS011;29263;48.172;11.484;2023-06-22T03:39:40;4.30;;;2.95;;
43664;SDS011;29263;48.172;11.484;2023-06-22T03:42:06;10.38;;;3.05;;
43664;SDS011;29263;48.172;11.484;2023-06-22T03:44:33;6.63;;;3.47;;
43664;SDS011;29263;48.172;11.484;2023-06-22T03:47:01;5.97;;;2.72;;
43664;SDS011;29263;48.172;11.484;2023-06-22T03:49:29;5.95;;;2.97;;
43664;SDS011;29263;48.172;11.484;2023-06-22T03:51:55;8.65;;;3.30;;
43664;SDS011;29263;48.172;11.484;2023-06-22T03:54:21;7.05;;;3.55;;
43664;SDS011;29263;48.172;11.484;2023-06-22T03:56:46;8.05;;;3.47;;
43664;SDS011;29263;48.172;11.484;2023-06-22T03:59:12;8.13;;;3.38;;
43664;SDS011;29263;48.172;11.484;2023-06-22T04:01:37;6.05;;;2.80;;
43664;SDS011;29263;48.172;11.484;2023-06-22T04:04:03;6.20;;;3.30;;
43664;SDS011;29263;48.172;11.484;2023-06-22T04:06:30;3.70;;;2.45;;
43664;SDS011;29263;48.172;11.484;2023-06-22T04:08:56;5.15;;;2.88;;
43664;SDS011;29263;48.172;11.484;2023-06-22T04:11:21;4.90;;;2.88;;
43664;SDS011;29263;48.172;11.484;2023-06-22T04:13:47;7.15;;;3.20;;
43664;SDS011;29263;48.172;11.484;2023-06-22T04:16:13;6.88;;;3.30;;
43664;SDS011;29263;48.172;11.484;2023-06-22T04:18:39;7.47;;;2.88;;
43664;SDS011;29263;48.172;11.484;2023-06-22T04:21:05;5.80;;;3.22;;
43664;SDS011;29263;48.172;11.484;2023-06-22T04:23:30;7.55;;;3.17;;
43664;SDS011;29263;48.172;11.484;2023-06-22T04:25:56;6.65;;;3.05;;
43664;SDS011;29263;48.172;11.484;2023-06-22T04:28:22;6.72;;;3.53;;
43664;SDS011;29263;48.172;11.484;2023-06-22T04:30:48;9.25;;;2.85;;
43664;SDS011;29263;48.172;11.484;2023-06-22T04:33:15;9.90;;;3.50;;
43664;SDS011;29263;48.172;11.484;2023-06-22T04:35:44;9.98;;;3.92;;
43664;SDS011;29263;48.172;11.484;2023-06-22T04:38:11;4.35;;;2.97;;
43664;SDS011;29263;48.172;11.484;2023-06-22T04:40:38;5.05;;;3.00;;
43664;SDS011;29263;48.172;11.484;2023-06-22T04:43:04;5.85;;;2.50;;
43664;SDS011;29263;48.172;11.484;2023-06-22T04:45:31;10.40;;;3.40;;
43664;SDS011;29263;48.172;11.484;2023-06-22T04:47:57;5.90;;;2.95;;
43664;SDS011;29263;48.172;11.484;2023-06-22T04:50:23;5.57;;;3.15;;
43664;SDS011;29263;48.172;11.484;2023-06-22T04:52:49;7.45;;;2.97;;
43664;SDS011;29263;48.172;11.484;2023-06-22T04:55:15;9.88;;;3.10;;
43664;SDS011;29263;48.172;11.484;2023-06-22T04:57:45;4.82;;;3.33;;
43664;SDS011;29263;48.172;11.484;2023-06-22T05:00:14;6.15;;;2.97;;
43664;SDS011;29263;48.172;11.484;2023-06-22T05:02:42;5.93;;;3.00;;
43664;SDS011;29263;48.172;11.484;2023-06-22T05:05:10;7.43;;;3.58;;
43664;SDS011;29263;48.172;11.484;2023-06-22T05:07:39;10.70;;;3.60;;
43664;SDS011;29263;48.172;11.484;2023-06-22T05:12:34;6.50;;;3.25;;
43664;SDS011;29263;48.172;11.484;2023-06-22T05:15:00;8.98;;;3.80;;
43664;SDS011;29263;48.172;11.484;2023-06-22T05:17:26;6.70;;;3.53;;
43664;SDS011;29263;48.172;11.484;2023-06-22T05:19:52;9.55;;;3.47;;
43664;SDS011;29263;48.172;11.484;2023-06-22T05:22:18;11.65;;;3.72;;
43664;SDS011;29263;48.172;11.484;2023-06-22T05:24:44;7.75;;;3.03;;
43664;SDS011;29263;48.172;11.484;2023-06-22T05:27:10;8.18;;;3.83;;
43664;SDS011;29263;48.172;11.484;2023-06-22T05:29:36;7.70;;;4.28;;
43664;SDS011;29263;48.172;11.484;2023-06-22T05:32:02;7.63;;;3.40;;
43664;SDS011;29263;48.172;11.484;2023-06-22T05:34:28;8.20;;;3.42;;
43664;SDS011;29263;48.172;11.484;2023-06-22T05:36:54;9.95;;;3.25;;
43664;SDS011;29263;48.172;11.484;2023-06-22T05:39:19;5.68;;;3.60;;
43664;SDS011;29263;48.172;11.484;2023-06-22T05:41:45;9.65;;;3.97;;
43664;SDS011;29263;48.172;11.484;2023-06-22T05:44:11;6.30;;;3.75;;
43664;SDS011;29263;48.172;11.484;2023-06-22T05:46:40;6.00;;;3.20;;
43664;SDS011;29263;48.172;11.484;2023-06-22T05:49:09;6.90;;;3.40;;
43664;SDS011;29263;48.172;11.484;2023-06-22T05:51:36;9.95;;;4.28;;
43664;SDS011;29263;48.172;11.484;2023-06-22T05:54:01;7.78;;;3.60;;
43664;SDS011;29263;48.172;11.484;2023-06-22T05:56:27;10.25;;;3.95;;
43664;SDS011;29263;48.172;11.484;2023-06-22T05:58:53;9.88;;;4.13;;
43664;SDS011;29263;48.172;11.484;2023-06-22T06:01:18;9.00;;;4.05;;
43664;SDS011;29263;48.172;11.484;2023-06-22T06:03:44;9.50;;;4.10;;
43664;SDS011;29263;48.172;11.484;2023-06-22T06:06:09;8.75;;;4.13;;
43664;SDS011;29263;48.172;11.484;2023-06-22T06:08:36;9.80;;;4.32;;
43664;SDS011;29263;48.172;11.484;2023-06-22T06:11:05;8.75;;;4.35;;
43664;SDS011;29263;48.172;11.484;2023-06-22T06:13:30;10.63;;;3.75;;
43664;SDS011;29263;48.172;11.484;2023-06-22T06:15:56;8.45;;;3.97;;
43664;SDS011;29263;48.172;11.484;2023-06-22T06:18:22;8.18;;;4.35;;
43664;SDS011;29263;48.172;11.484;2023-06-22T06:20:48;8.02;;;3.85;;
43664;SDS011;29263;48.172;11.484;2023-06-22T06:23:14;9.68;;;4.35;;
43664;SDS011;29263;48.172;11.484;2023-06-22T06:25:39;5.30;;;3.47;;
43664;SDS011;29263;48.172;11.484;2023-06-22T06:28:05;11.27;;;3.90;;
43664;SDS011;29263;48.172;11.484;2023-06-22T06:30:31;10.25;;;4.40;;
43664;SDS011;29263;48.172;11.484;2023-06-22T06:32:56;9.52;;;4.30;;
43664;SDS011;29263;48.172;11.484;2023-06-22T06:35:22;9.80;;;4.50;;
43664;SDS011;29263;48.172;11.484;2023-06-22T06:37:48;7.60;;;3.80;;
43664;SDS011;29263;48.172;11.484;2023-06-22T06:40:16;4.85;;;3.67;;
43664;SDS011;29263;48.172;11.484;2023-06-22T06:42:43;10.40;;;3.88;;
43664;SDS011;29263;48.172;11.484;2023-06-22T06:45:11;11.90;;;4.65;;
43664;SDS011;29263;48.172;11.484;2023-06-22T06:47:38;8.18;;;3.65;;
43664;SDS011;29263;48.172;11.484;2023-06-22T06:50:05;5.07;;;3.33;;
43664;SDS011;29263;48.172;11.484;2023-06-22T06:52:31;8.02;;;4.35;;
43664;SDS011;29263;48.172;11.484;2023-06-22T06:54:56;10.77;;;4.55;;
43664;SDS011;29263;48.172;11.484;2023-06-22T06:57:22;10.10;;;4.50;;
43664;SDS011;29263;48.172;11.484;2023-06-22T06:59:48;10.13;;;4.65;;
43664;SDS011;29263;48.172;11.484;2023-06-22T07:02:14;11.70;;;4.00;;
43664;SDS011;29263;48.172;11.484;2023-06-22T07:04:41;12.00;;;5.43;;
43664;SDS011;29263;48.172;11.484;2023-06-22T07:07:06;8.52;;;4.15;;
43664;SDS011;29263;48.172;11.484;2023-06-22T07:09:32;8.68;;;4.13;;
43664;SDS011;29263;48.172;11.484;2023-06-22T07:11:58;8.27;;;4.75;;
43664;SDS011;29263;48.172;11.484;2023-06-22T07:14:23;11.95;;;5.55;;
43664;SDS011;29263;48.172;11.484;2023-06-22T07:16:49;10.55;;;4.35;;
43664;SDS011;29263;48.172;11.484;2023-06-22T07:19:15;11.77;;;3.97;;
43664;SDS011;29263;48.172;11.484;2023-06-22T07:21:40;11.38;;;4.18;;
43664;SDS011;29263;48.172;11.484;2023-06-22T07:24:06;14.52;;;4.63;;
43664;SDS011;29263;48.172;11.484;2023-06-22T07:26:32;8.98;;;4.10;;
43664;SDS011;29263;48.172;11.484;2023-06-22T07:28:58;11.90;;;5.13;;
43664;SDS011;29263;48.172;11.484;2023-06-22T07:31:24;9.90;;;4.53;;
43664;SDS011;29263;48.172;11.484;2023-06-22T07:33:50;8.88;;;5.53;;
43664;SDS011;29263;48.172;11.484;2023-06-22T07:36:16;8.02;;;4.32;;
43664;SDS011;29263;48.172;11.484;2023-06-22T07:38:43;10.10;;;4.68;;
43664;SDS011;29263;48.172;11.484;2023-06-22T07:41:08;8.93;;;4.15;;
43664;SDS011;29263;48.172;11.484;2023-06-22T07:43:34;10.20;;;5.70;;
43664;SDS011;29263;48.172;11.484;2023-06-22T07:46:02;8.35;;;3.92;;
43664;SDS011;29263;48.172;11.484;2023-06-22T07:48:28;8.23;;;3.95;;
43664;SDS011;29263;48.172;11.484;2023-06-22T07:50:54;11.15;;;4.22;;
43664;SDS011;29263;48.172;11.484;2023-06-22T07:53:20;14.02;;;4.40;;
43664;SDS011;29263;48.172;11.484;2023-06-22T07:55:47;7.97;;;4.10;;
43664;SDS011;29263;48.172;11.484;2023-06-22T07:58:12;10.13;;;5.03;;
43664;SDS011;29263;48.172;11.484;2023-06-22T08:00:38;7.05;;;4.15;;
43664;SDS011;29263;48.172;11.484;2023-06-22T08:03:04;11.23;;;4.78;;
43664;SDS011;29263;48.172;11.484;2023-06-22T08:05:30;11.85;;;4.78;;
43664;SDS011;29263;48.172;11.484;2023-06-22T08:07:56;9.80;;;4.63;;
43664;SDS011;29263;48.172;11.484;2023-06-22T08:10:22;10.95;;;3.95;;
43664;SDS011;29263;48.172;11.484;2023-06-22T08:12:47;10.82;;;5.15;;
43664;SDS011;29263;48.172;11.484;2023-06-22T08:15:13;8.07;;;4.30;;
43664;SDS011;29263;48.172;11.484;2023-06-22T08:17:39;12.40;;;4.43;;
43664;SDS011;29263;48.172;11.484;2023-06-22T08:20:05;14.25;;;4.75;;
43664;SDS011;29263;48.172;11.484;2023-06-22T08:22:35;9.35;;;3.85;;
43664;SDS011;29263;48.172;11.484;2023-06-22T08:25:01;11.02;;;4.60;;
43664;SDS011;29263;48.172;11.484;2023-06-22T08:27:29;11.73;;;4.97;;
43664;SDS011;29263;48.172;11.484;2023-06-22T08:29:56;11.50;;;4.20;;
43664;SDS011;29263;48.172;11.484;2023-06-22T08:32:24;6.47;;;4.28;;
43664;SDS011;29263;48.172;11.484;2023-06-22T08:34:51;18.65;;;5.18;;
43664;SDS011;29263;48.172;11.484;2023-06-22T08:37:18;7.40;;;4.20;;
43664;SDS011;29263;48.172;11.484;2023-06-22T08:39:44;9.63;;;4.20;;
43664;SDS011;29263;48.172;11.484;2023-06-22T08:42:09;11.70;;;4.25;;
43664;SDS011;29263;48.172;11.484;2023-06-22T08:44:36;8.00;;;4.45;;
43664;SDS011;29263;48.172;11.484;2023-06-22T08:47:02;9.45;;;4.88;;
43664;SDS011;29263;48.172;11.484;2023-06-22T08:49:28;8.13;;;4.45;;
43664;SDS011;29263;48.172;11.484;2023-06-22T08:51:54;11.55;;;3.85;;
43664;SDS011;29263;48.172;11.484;2023-06-22T08:54:21;9.02;;;3.80;;
43664;SDS011;29263;48.172;11.484;2023-06-22T08:56:47;10.73;;;4.15;;
43664;SDS011;29263;48.172;11.484;2023-06-22T08:59:13;11.68;;;4.35;;
43664;SDS011;29263;48.172;11.484;2023-06-22T09:01:38;9.75;;;3.80;;
43664;SDS011;29263;48.172;11.484;2023-06-22T09:07:44;8.57;;;4.10;;
43664;SDS011;29263;48.172;11.484;2023-06-22T09:10:09;8.65;;;4.28;;
43664;SDS011;29263;48.172;11.484;2023-06-22T09:12:35;12.30;;;4.43;;
43664;SDS011;29263;48.172;11.484;2023-06-22T09:15:02;10.82;;;4.32;;
43664;SDS011;29263;48.172;11.484;2023-06-22T09:17:28;12.93;;;4.35;;
43664;SDS011;29263;48.172;11.484;2023-06-22T09:19:54;12.65;;;5.15;;
43664;SDS011;29263;48.172;11.484;2023-06-22T09:22:20;10.93;;;4.40;;
43664;SDS011;29263;48.172;11.484;2023-06-22T09:24:54;8.55;;;3.83;;
43664;SDS011;29263;48.172;11.484;2023-06-22T09:27:20;16.17;;;4.68;;
43664;SDS011;29263;48.172;11.484;2023-06-22T09:29:47;9.40;;;3.95;;
43664;SDS011;29263;48.172;11.484;2023-06-22T09:32:13;7.97;;;4.05;;
43664;SDS011;29263;48.172;11.484;2023-06-22T09:34:38;11.63;;;4.88;;
43664;SDS011;29263;48.172;11.484;2023-06-22T09:37:04;14.85;;;4.50;;
43664;SDS011;29263;48.172;11.484;2023-06-22T09:39:30;9.38;;;4.15;;
43664;SDS011;29263;48.172;11.484;2023-06-22T09:41:57;11.45;;;4.60;;
43664;SDS011;29263;48.172;11.484;2023-06-22T09:44:24;12.27;;;4.45;;
43664;SDS011;29263;48.172;11.484;2023-06-22T09:46:50;9.98;;;4.70;;
43664;SDS011;29263;48.172;11.484;2023-06-22T09:49:15;12.35;;;4.68;;
43664;SDS011;29263;48.172;11.484;2023-06-22T09:51:41;9.32;;;4.25;;
43664;SDS011;29263;48.172;11.484;2023-06-22T09:54:07;9.60;;;4.75;;
43664;SDS011;29263;48.172;11.484;2023-06-22T09:56:32;9.32;;;4.07;;
43664;SDS011;29263;48.172;11.484;2023-06-22T09:58:58;11.35;;;4.30;;
43664;SDS011;29263;48.172;11.484;2023-06-22T10:01:23;10.68;;;4.82;;
43664;SDS011;29263;48.172;11.484;2023-06-22T10:03:49;8.23;;;3.83;;
43664;SDS011;29263;48.172;11.484;2023-06-22T10:06:19;7.43;;;4.13;;
43664;SDS011;29263;48.172;11.484;2023-06-22T10:08:45;11.88;;;4.82;;
43664;SDS011;29263;48.172;11.484;2023-06-22T10:11:10;12.38;;;4.07;;
43664;SDS011;29263;48.172;11.484;2023-06-22T10:13:36;10.27;;;4.53;;
43664;SDS011;29263;48.172;11.484;2023-06-22T10:16:01;14.75;;;4.03;;
43664;SDS011;29263;48.172;11.484;2023-06-22T10:18:27;11.68;;;4.30;;
43664;SDS011;29263;48.172;11.484;2023-06-22T10:20:53;10.05;;;5.03;;
43664;SDS011;29263;48.172;11.484;2023-06-22T10:23:19;12.25;;;4.57;;
43664;SDS011;29263;48.172;11.484;2023-06-22T10:25:45;13.13;;;5.03;;
43664;SDS011;29263;48.172;11.484;2023-06-22T10:28:11;12.48;;;4.50;;
43664;SDS011;29263;48.172;11.484;2023-06-22T10:30:37;8.80;;;4.03;;
43664;SDS011;29263;48.172;11.484;2023-06-22T10:35:32;10.02;;;4.40;;
43664;SDS011;29263;48.172;11.484;2023-06-22T10:37:58;8.35;;;3.90;;
43664;SDS011;29263;48.172;11.484;2023-06-22T10:40:24;10.65;;;4.07;;
43664;SDS011;29263;48.172;11.484;2023-06-22T10:42:49;8.73;;;3.95;;
43664;SDS011;29263;48.172;11.484;2023-06-22T10:45:15;10.10;;;4.38;;
43664;SDS011;29263;48.172;11.484;2023-06-22T10:47:41;8.15;;;4.32;;
43664;SDS011;29263;48.172;11.484;2023-06-22T10:50:09;9.70;;;4.28;;
43664;SDS011;29263;48.172;11.484;2023-06-22T10:52:35;14.35;;;4.68;;
43664;SDS011;29263;48.172;11.484;2023-06-22T10:55:01;11.02;;;4.45;;
43664;SDS011;29263;48.172;11.484;2023-06-22T10:57:27;11.27;;;3.95;;
43664;SDS011;29263;48.172;11.484;2023-06-22T10:59:53;9.10;;;4.28;;
43664;SDS011;29263;48.172;11.484;2023-06-22T11:02:18;13.77;;;4.60;;
43664;SDS011;29263;48.172;11.484;2023-06-22T11:04:44;13.32;;;4.80;;
43664;SDS011;29263;48.172;11.484;2023-06-22T11:07:11;11.07;;;5.03;;
43664;SDS011;29263;48.172;11.484;2023-06-22T11:09:36;8.85;;;4.97;;
43664;SDS011;29263;48.172;11.484;2023-06-22T11:12:03;11.80;;;4.38;;
43664;SDS011;29263;48.172;11.484;2023-06-22T11:14:29;13.13;;;4.63;;
43664;SDS011;29263;48.172;11.484;2023-06-22T11:16:55;12.18;;;5.50;;
43664;SDS011;29263;48.172;11.484;2023-06-22T11:19:21;9.02;;;4.63;;
43664;SDS011;29263;48.172;11.484;2023-06-22T11:21:46;10.43;;;4.78;;
43664;SDS011;29263;48.172;11.484;2023-06-22T11:24:12;12.20;;;4.20;;
43664;SDS011;29263;48.172;11.484;2023-06-22T11:26:37;11.65;;;4.35;;
43664;SDS011;29263;48.172;11.484;2023-06-22T11:29:03;9.55;;;4.43;;
43664;SDS011;29263;48.172;11.484;2023-06-22T11:31:30;12.43;;;4.93;;
43664;SDS011;29263;48.172;11.484;2023-06-22T11:33:57;11.40;;;4.30;;
43664;SDS011;29263;48.172;11.484;2023-06-22T11:36:22;12.05;;;4.53;;
43664;SDS011;29263;48.172;11.484;2023-06-22T11:38:51;13.30;;;4.65;;
43664;SDS011;29263;48.172;11.484;2023-06-22T11:41:17;8.65;;;4.65;;
43664;SDS011;29263;48.172;11.484;2023-06-22T11:43:42;10.57;;;5.13;;
43664;SDS011;29263;48.172;11.484;2023-06-22T11:46:08;16.63;;;4.18;;
43664;SDS011;29263;48.172;11.484;2023-06-22T11:48:35;12.45;;;4.25;;
43664;SDS011;29263;48.172;11.484;2023-06-22T11:51:01;13.32;;;4.60;;
43664;SDS011;29263;48.172;11.484;2023-06-22T11:53:28;10.30;;;4.40;;
43664;SDS011;29263;48.172;11.484;2023-06-22T11:55:54;11.77;;;4.60;;
43664;SDS011;29263;48.172;11.484;2023-06-22T11:58:20;15.15;;;4.68;;
43664;SDS011;29263;48.172;11.484;2023-06-22T12:00:46;14.73;;;4.97;;
43664;SDS011;29263;48.172;11.484;2023-06-22T12:03:11;9.60;;;4.18;;
43664;SDS011;29263;48.172;11.484;2023-06-22T12:05:37;12.25;;;4.47;;
43664;SDS011;29263;48.172;11.484;2023-06-22T12:08:03;11.77;;;4.38;;
43664;SDS011;29263;48.172;11.484;2023-06-22T12:10:29;14.38;;;4.32;;
43664;SDS011;29263;48.172;11.484;2023-06-22T12:12:55;13.85;;;4.72;;
43664;SDS011;29263;48.172;11.484;2023-06-22T12:15:22;13.40;;;4.68;;
43664;SDS011;29263;48.172;11.484;2023-06-22T12:17:48;18.85;;;5.05;;
43664;SDS011;29263;48.172;11.484;2023-06-22T12:20:14;15.43;;;4.40;;
43664;SDS011;29263;48.172;11.484;2023-06-22T12:22:40;10.98;;;4.65;;
43664;SDS011;29263;48.172;11.484;2023-06-22T12:25:06;10.13;;;4.50;;
43664;SDS011;29263;48.172;11.484;2023-06-22T12:27:32;9.98;;;4.78;;
43664;SDS011;29263;48.172;11.484;2023-06-22T12:29:58;12.98;;;4.60;;
43664;SDS011;29263;48.172;11.484;2023-06-22T12:32:23;12.63;;;4.63;;
43664;SDS011;29263;48.172;11.484;2023-06-22T12:34:50;13.65;;;4.63;;
43664;SDS011;29263;48.172;11.484;2023-06-22T12:37:16;10.93;;;4.15;;
43664;SDS011;29263;48.172;11.484;2023-06-22T12:39:41;15.52;;;5.55;;
43664;SDS011;29263;48.172;11.484;2023-06-22T12:42:07;15.38;;;5.25;;
43664;SDS011;29263;48.172;11.484;2023-06-22T12:44:37;13.35;;;4.47;;
43664;SDS011;29263;48.172;11.484;2023-06-22T12:47:03;13.95;;;4.45;;
43664;SDS011;29263;48.172;11.484;2023-06-22T12:49:29;13.27;;;4.57;;
43664;SDS011;29263;48.172;11.484;2023-06-22T12:51:54;12.43;;;4.32;;
43664;SDS011;29263;48.172;11.484;2023-06-22T12:54:20;13.45;;;4.65;;
43664;SDS011;29263;48.172;11.484;2023-06-22T12:56:45;10.65;;;4.50;;
43664;SDS011;29263;48.172;11.484;2023-06-22T12:59:12;14.23;;;4.65;;
43664;SDS011;29263;48.172;11.484;2023-06-22T13:01:37;10.80;;;4.13;;
43664;SDS011;29263;48.172;11.484;2023-06-22T13:04:03;9.18;;;4.50;;
43664;SDS011;29263;48.172;11.484;2023-06-22T13:06:29;15.05;;;4.65;;
43664;SDS011;29263;48.172;11.484;2023-06-22T13:08:55;11.68;;;4.00;;
43664;SDS011;29263;48.172;11.484;2023-06-22T13:11:20;9.23;;;3.97;;
43664;SDS011;29263;48.172;11.484;2023-06-22T13:13:46;9.82;;;3.83;;
43664;SDS011;29263;48.172;11.484;2023-06-22T13:16:12;15.07;;;4.13;;
43664;SDS011;29263;48.172;11.484;2023-06-22T13:18:38;15.27;;;4.75;;
43664;SDS011;29263;48.172;11.484;2023-06-22T13:21:03;14.20;;;4.32;;
43664;SDS011;29263;48.172;11.484;2023-06-22T13:23:29;10.18;;;4.28;;
43664;SDS011;29263;48.172;11.484;2023-06-22T13:25:55;10.77;;;4.25;;
43664;SDS011;29263;48.172;11.484;2023-06-22T13:28:22;12.82;;;4.80;;
43664;SDS011;29263;48.172;11.484;2023-06-22T13:30:48;14.13;;;4.20;;
43664;SDS011;29263;48.172;11.484;2023-06-22T13:33:13;9.45;;;4.18;;
43664;SDS011;29263;48.172;11.484;2023-06-22T13:35:39;13.60;;;4.50;;
43664;SDS011;29263;48.172;11.484;2023-06-22T13:38:07;12.02;;;4.55;;
43664;SDS011;29263;48.172;11.484;2023-06-22T13:40:36;20.35;;;4.22;;
43664;SDS011;29263;48.172;11.484;2023-06-22T13:43:04;12.77;;;4.07;;
43664;SDS011;29263;48.172;11.484;2023-06-22T13:45:30;9.13;;;4.28;;
43664;SDS011;29263;48.172;11.484;2023-06-22T13:47:56;16.77;;;4.43;;
43664;SDS011;29263;48.172;11.484;2023-06-22T13:50:21;14.35;;;4.35;;
43664;SDS011;29263;48.172;11.484;2023-06-22T13:52:47;11.18;;;4.57;;
43664;SDS011;29263;48.172;11.484;2023-06-22T13:55:13;12.40;;;4.60;;
43664;SDS011;29263;48.172;11.484;2023-06-22T13:57:39;10.70;;;3.85;;
43664;SDS011;29263;48.172;11.484;2023-06-22T14:00:06;7.53;;;3.72;;
43664;SDS011;29263;48.172;11.484;2023-06-22T14:02:33;14.70;;;4.40;;
43664;SDS011;29263;48.172;11.484;2023-06-22T14:04:59;12.68;;;4.40;;
43664;SDS011;29263;48.172;11.484;2023-06-22T14:07:25;12.07;;;4.10;;
43664;SDS011;29263;48.172;11.484;2023-06-22T14:09:51;7.68;;;3.88;;
43664;SDS011;29263;48.172;11.484;2023-06-22T14:12:16;17.30;;;4.97;;
43664;SDS011;29263;48.172;11.484;2023-06-22T14:14:45;15.57;;;4.72;;
43664;SDS011;29263;48.172;11.484;2023-06-22T14:17:11;11.38;;;3.55;;
43664;SDS011;29263;48.172;11.484;2023-06-22T14:19:36;11.25;;;4.00;;
43664;SDS011;29263;48.172;11.484;2023-06-22T14:22:02;10.95;;;3.85;;
43664;SDS011;29263;48.172;11.484;2023-06-22T14:24:28;12.27;;;3.50;;
43664;SDS011;29263;48.172;11.484;2023-06-22T14:26:56;15.80;;;4.10;;
43664;SDS011;29263;48.172;11.484;2023-06-22T14:29:22;9.13;;;3.65;;
43664;SDS011;29263;48.172;11.484;2023-06-22T14:31:48;9.90;;;3.72;;
43664;SDS011;29263;48.172;11.484;2023-06-22T14:34:14;11.50;;;3.55;;
43664;SDS011;29263;48.172;11.484;2023-06-22T14:36:40;11.18;;;3.90;;
43664;SDS011;29263;48.172;11.484;2023-06-22T14:39:06;11.70;;;3.55;;